Texico, New Mexico
Current Conditions -  °F | °C
As of 2:35 AM on Monday 20 Oct 2014 (Local Time) from KCVN Reporting Station
Overcast Overcast  
Wind Chill: 50°   Ceiling: 200
Heat Index: 50°   Visibility: 0.5mi
Dew Point: 48°   Wind: 7mph
Humidity: 94%   Direction: 290°WNW
Pressure: 30.15"   Gusts: NA
Location:  34.39°N, 103.05°W
Report Text: KCVN 200835Z AUTO 29006KT 1/2SM OVC002 10/09 A3015 RMK AO1
Loading
Personal Weather Stations






























Interactive Weather Map
Tropical Storm Tracking
New forecast layout! Learn more

10-Day Weather Forecast

Advertisements
Track Severe Weather on mobile